sensor_id;sensor_type;location;lat;lon;timestamp;P1;durP1;ratioP1;P2;durP2;ratioP2
323;SDS011;149;51.094;17.002;2023-05-01T00:00:24;21.33;;;15.30;;
323;SDS011;149;51.094;17.002;2023-05-01T00:02:53;20.77;;;14.55;;
323;SDS011;149;51.094;17.002;2023-05-01T00:05:21;19.40;;;14.35;;
323;SDS011;149;51.094;17.002;2023-05-01T00:07:48;19.17;;;13.40;;
323;SDS011;149;51.094;17.002;2023-05-01T00:10:15;19.08;;;13.80;;
323;SDS011;149;51.094;17.002;2023-05-01T00:12:42;18.40;;;13.23;;
323;SDS011;149;51.094;17.002;2023-05-01T00:15:09;24.52;;;15.90;;
323;SDS011;149;51.094;17.002;2023-05-01T00:17:37;19.30;;;14.68;;
323;SDS011;149;51.094;17.002;2023-05-01T00:20:04;20.92;;;12.68;;
323;SDS011;149;51.094;17.002;2023-05-01T00:22:31;16.67;;;13.07;;
323;SDS011;149;51.094;17.002;2023-05-01T00:24:58;18.75;;;14.43;;
323;SDS011;149;51.094;17.002;2023-05-01T00:27:26;20.75;;;13.98;;
323;SDS011;149;51.094;17.002;2023-05-01T00:29:53;23.17;;;14.70;;
323;SDS011;149;51.094;17.002;2023-05-01T00:32:20;20.35;;;13.23;;
323;SDS011;149;51.094;17.002;2023-05-01T00:34:47;16.17;;;12.98;;
323;SDS011;149;51.094;17.002;2023-05-01T00:37:14;16.08;;;13.00;;
323;SDS011;149;51.094;17.002;2023-05-01T00:39:42;23.13;;;14.57;;
323;SDS011;149;51.094;17.002;2023-05-01T00:42:10;16.48;;;14.10;;
323;SDS011;149;51.094;17.002;2023-05-01T00:44:37;15.45;;;12.73;;
323;SDS011;149;51.094;17.002;2023-05-01T00:47:05;20.65;;;14.52;;
323;SDS011;149;51.094;17.002;2023-05-01T00:49:32;22.65;;;16.73;;
323;SDS011;149;51.094;17.002;2023-05-01T00:51:59;25.30;;;14.98;;
323;SDS011;149;51.094;17.002;2023-05-01T00:54:27;20.33;;;14.55;;
323;SDS011;149;51.094;17.002;2023-05-01T00:56:54;18.80;;;13.25;;
323;SDS011;149;51.094;17.002;2023-05-01T00:59:21;22.27;;;16.63;;
323;SDS011;149;51.094;17.002;2023-05-01T01:01:49;24.92;;;15.68;;
323;SDS011;149;51.094;17.002;2023-05-01T01:04:16;23.58;;;14.95;;
323;SDS011;149;51.094;17.002;2023-05-01T01:12:44;15.82;;;14.13;;
323;SDS011;149;51.094;17.002;2023-05-01T01:18:07;21.88;;;15.07;;
323;SDS011;149;51.094;17.002;2023-05-01T01:29:55;30.48;;;16.05;;
323;SDS011;149;51.094;17.002;2023-05-01T01:35:26;16.17;;;13.43;;
323;SDS011;149;51.094;17.002;2023-05-01T01:38:00;17.67;;;14.65;;
323;SDS011;149;51.094;17.002;2023-05-01T01:40:44;19.33;;;15.60;;
323;SDS011;149;51.094;17.002;2023-05-01T01:43:18;20.55;;;14.52;;
323;SDS011;149;51.094;17.002;2023-05-01T01:45:52;19.65;;;16.25;;
323;SDS011;149;51.094;17.002;2023-05-01T01:48:30;21.15;;;16.35;;
323;SDS011;149;51.094;17.002;2023-05-01T01:51:04;23.90;;;15.95;;
323;SDS011;149;51.094;17.002;2023-05-01T01:53:35;23.10;;;16.40;;
323;SDS011;149;51.094;17.002;2023-05-01T01:56:05;21.63;;;14.88;;
323;SDS011;149;51.094;17.002;2023-05-01T01:58:34;24.90;;;15.60;;
323;SDS011;149;51.094;17.002;2023-05-01T02:01:04;23.35;;;17.33;;
323;SDS011;149;51.094;17.002;2023-05-01T02:03:31;19.33;;;13.70;;
323;SDS011;149;51.094;17.002;2023-05-01T02:05:59;20.02;;;15.02;;
323;SDS011;149;51.094;17.002;2023-05-01T02:08:29;18.52;;;15.88;;
323;SDS011;149;51.094;17.002;2023-05-01T02:10:56;18.60;;;15.82;;
323;SDS011;149;51.094;17.002;2023-05-01T02:13:27;19.85;;;15.73;;
323;SDS011;149;51.094;17.002;2023-05-01T02:15:59;24.08;;;14.98;;
323;SDS011;149;51.094;17.002;2023-05-01T02:18:29;29.40;;;16.67;;
323;SDS011;149;51.094;17.002;2023-05-01T02:20:57;19.88;;;16.30;;
323;SDS011;149;51.094;17.002;2023-05-01T02:23:26;22.05;;;16.65;;
323;SDS011;149;51.094;17.002;2023-05-01T02:25:53;28.25;;;16.95;;
323;SDS011;149;51.094;17.002;2023-05-01T02:28:23;21.65;;;16.77;;
323;SDS011;149;51.094;17.002;2023-05-01T02:30:52;24.42;;;15.52;;
323;SDS011;149;51.094;17.002;2023-05-01T02:33:19;22.90;;;15.57;;
323;SDS011;149;51.094;17.002;2023-05-01T02:35:46;25.65;;;16.67;;
323;SDS011;149;51.094;17.002;2023-05-01T02:38:13;21.50;;;15.95;;
323;SDS011;149;51.094;17.002;2023-05-01T02:40:52;19.67;;;15.43;;
323;SDS011;149;51.094;17.002;2023-05-01T02:43:22;20.65;;;15.40;;
323;SDS011;149;51.094;17.002;2023-05-01T02:45:52;21.73;;;15.70;;
323;SDS011;149;51.094;17.002;2023-05-01T02:48:21;21.65;;;15.27;;
323;SDS011;149;51.094;17.002;2023-05-01T02:50:55;21.63;;;16.17;;
323;SDS011;149;51.094;17.002;2023-05-01T02:53:23;23.30;;;16.75;;
323;SDS011;149;51.094;17.002;2023-05-01T02:55:50;24.02;;;16.73;;
323;SDS011;149;51.094;17.002;2023-05-01T02:58:17;22.58;;;16.17;;
323;SDS011;149;51.094;17.002;2023-05-01T03:00:44;16.85;;;14.38;;
323;SDS011;149;51.094;17.002;2023-05-01T03:03:15;23.38;;;16.23;;
323;SDS011;149;51.094;17.002;2023-05-01T03:05:42;16.15;;;13.95;;
323;SDS011;149;51.094;17.002;2023-05-01T03:08:09;18.70;;;14.88;;
323;SDS011;149;51.094;17.002;2023-05-01T03:10:40;20.60;;;14.95;;
323;SDS011;149;51.094;17.002;2023-05-01T03:13:09;22.13;;;15.63;;
323;SDS011;149;51.094;17.002;2023-05-01T03:15:37;20.60;;;16.00;;
323;SDS011;149;51.094;17.002;2023-05-01T03:18:04;22.33;;;16.52;;
323;SDS011;149;51.094;17.002;2023-05-01T03:20:32;17.83;;;14.63;;
323;SDS011;149;51.094;17.002;2023-05-01T03:23:00;22.42;;;14.20;;
323;SDS011;149;51.094;17.002;2023-05-01T03:25:30;22.20;;;14.65;;
323;SDS011;149;51.094;17.002;2023-05-01T03:27:57;24.52;;;16.42;;
323;SDS011;149;51.094;17.002;2023-05-01T03:30:24;20.30;;;15.55;;
323;SDS011;149;51.094;17.002;2023-05-01T03:32:51;25.42;;;15.43;;
323;SDS011;149;51.094;17.002;2023-05-01T03:35:18;23.05;;;16.73;;
323;SDS011;149;51.094;17.002;2023-05-01T03:37:45;27.25;;;16.73;;
323;SDS011;149;51.094;17.002;2023-05-01T03:40:11;28.65;;;17.10;;
323;SDS011;149;51.094;17.002;2023-05-01T03:42:39;23.10;;;16.70;;
323;SDS011;149;51.094;17.002;2023-05-01T03:45:06;24.00;;;16.05;;
323;SDS011;149;51.094;17.002;2023-05-01T03:47:33;19.13;;;15.15;;
323;SDS011;149;51.094;17.002;2023-05-01T03:50:02;24.33;;;16.05;;
323;SDS011;149;51.094;17.002;2023-05-01T03:52:30;18.50;;;15.13;;
323;SDS011;149;51.094;17.002;2023-05-01T03:54:57;21.42;;;16.65;;
323;SDS011;149;51.094;17.002;2023-05-01T03:57:23;25.45;;;17.90;;
323;SDS011;149;51.094;17.002;2023-05-01T03:59:50;25.90;;;18.17;;
323;SDS011;149;51.094;17.002;2023-05-01T04:02:17;29.67;;;19.35;;
323;SDS011;149;51.094;17.002;2023-05-01T04:04:45;24.48;;;18.67;;
323;SDS011;149;51.094;17.002;2023-05-01T04:07:12;29.58;;;18.00;;
323;SDS011;149;51.094;17.002;2023-05-01T04:09:39;26.02;;;19.30;;
323;SDS011;149;51.094;17.002;2023-05-01T04:12:08;23.27;;;18.50;;
323;SDS011;149;51.094;17.002;2023-05-01T04:14:35;26.35;;;18.85;;
323;SDS011;149;51.094;17.002;2023-05-01T04:17:02;38.08;;;19.30;;
323;SDS011;149;51.094;17.002;2023-05-01T04:19:30;22.40;;;18.23;;
323;SDS011;149;51.094;17.002;2023-05-01T04:21:56;25.20;;;17.92;;
323;SDS011;149;51.094;17.002;2023-05-01T04:24:26;20.95;;;18.00;;
323;SDS011;149;51.094;17.002;2023-05-01T04:26:52;25.02;;;17.50;;
323;SDS011;149;51.094;17.002;2023-05-01T04:29:22;23.42;;;17.38;;
323;SDS011;149;51.094;17.002;2023-05-01T04:31:49;25.80;;;17.58;;
323;SDS011;149;51.094;17.002;2023-05-01T04:34:16;21.25;;;15.77;;
323;SDS011;149;51.094;17.002;2023-05-01T04:36:44;21.35;;;16.05;;
323;SDS011;149;51.094;17.002;2023-05-01T04:39:11;21.63;;;14.32;;
323;SDS011;149;51.094;17.002;2023-05-01T04:41:39;25.65;;;15.23;;
323;SDS011;149;51.094;17.002;2023-05-01T04:44:06;22.08;;;14.95;;
323;SDS011;149;51.094;17.002;2023-05-01T04:46:32;21.88;;;14.00;;
323;SDS011;149;51.094;17.002;2023-05-01T04:48:59;19.75;;;15.65;;
323;SDS011;149;51.094;17.002;2023-05-01T04:51:26;18.77;;;13.63;;
323;SDS011;149;51.094;17.002;2023-05-01T04:53:54;19.50;;;12.45;;
323;SDS011;149;51.094;17.002;2023-05-01T04:56:21;20.83;;;13.30;;
323;SDS011;149;51.094;17.002;2023-05-01T04:58:48;18.35;;;12.55;;
323;SDS011;149;51.094;17.002;2023-05-01T05:01:15;14.18;;;10.85;;
323;SDS011;149;51.094;17.002;2023-05-01T05:03:42;17.38;;;11.85;;
323;SDS011;149;51.094;17.002;2023-05-01T05:06:11;18.73;;;12.13;;
323;SDS011;149;51.094;17.002;2023-05-01T05:08:38;17.70;;;11.98;;
323;SDS011;149;51.094;17.002;2023-05-01T05:11:05;14.35;;;11.63;;
323;SDS011;149;51.094;17.002;2023-05-01T05:13:32;16.40;;;13.35;;
323;SDS011;149;51.094;17.002;2023-05-01T05:16:03;17.65;;;11.35;;
323;SDS011;149;51.094;17.002;2023-05-01T05:18:30;24.45;;;11.27;;
323;SDS011;149;51.094;17.002;2023-05-01T05:20:57;14.18;;;9.60;;
323;SDS011;149;51.094;17.002;2023-05-01T05:23:27;16.13;;;11.82;;
323;SDS011;149;51.094;17.002;2023-05-01T05:25:54;15.25;;;9.60;;
323;SDS011;149;51.094;17.002;2023-05-01T05:28:26;11.70;;;9.52;;
323;SDS011;149;51.094;17.002;2023-05-01T05:30:54;15.15;;;9.45;;
323;SDS011;149;51.094;17.002;2023-05-01T05:33:21;13.65;;;10.18;;
323;SDS011;149;51.094;17.002;2023-05-01T05:35:52;14.10;;;9.65;;
323;SDS011;149;51.094;17.002;2023-05-01T05:38:22;16.38;;;10.00;;
323;SDS011;149;51.094;17.002;2023-05-01T05:40:49;16.83;;;10.20;;
323;SDS011;149;51.094;17.002;2023-05-01T05:43:16;13.00;;;10.13;;
323;SDS011;149;51.094;17.002;2023-05-01T05:45:47;14.43;;;10.52;;
323;SDS011;149;51.094;17.002;2023-05-01T05:48:14;13.90;;;10.18;;
323;SDS011;149;51.094;17.002;2023-05-01T05:50:41;18.13;;;10.43;;
323;SDS011;149;51.094;17.002;2023-05-01T05:53:10;14.68;;;9.10;;
323;SDS011;149;51.094;17.002;2023-05-01T05:55:38;11.98;;;7.47;;
323;SDS011;149;51.094;17.002;2023-05-01T05:58:05;15.23;;;8.27;;
323;SDS011;149;51.094;17.002;2023-05-01T06:00:32;15.20;;;8.02;;
323;SDS011;149;51.094;17.002;2023-05-01T06:02:59;17.25;;;7.80;;
323;SDS011;149;51.094;17.002;2023-05-01T06:05:28;12.23;;;8.95;;
323;SDS011;149;51.094;17.002;2023-05-01T06:07:56;11.75;;;8.68;;
323;SDS011;149;51.094;17.002;2023-05-01T06:10:23;14.20;;;8.27;;
323;SDS011;149;51.094;17.002;2023-05-01T06:12:49;15.95;;;8.15;;
323;SDS011;149;51.094;17.002;2023-05-01T06:15:36;11.27;;;7.53;;
323;SDS011;149;51.094;17.002;2023-05-01T06:18:04;9.07;;;7.38;;
323;SDS011;149;51.094;17.002;2023-05-01T06:20:31;9.63;;;7.55;;
323;SDS011;149;51.094;17.002;2023-05-01T06:22:58;10.98;;;8.48;;
323;SDS011;149;51.094;17.002;2023-05-01T06:25:27;11.85;;;7.65;;
323;SDS011;149;51.094;17.002;2023-05-01T06:27:54;10.45;;;7.53;;
323;SDS011;149;51.094;17.002;2023-05-01T06:30:25;14.18;;;8.65;;
323;SDS011;149;51.094;17.002;2023-05-01T06:32:52;9.93;;;7.00;;
323;SDS011;149;51.094;17.002;2023-05-01T06:35:18;13.07;;;8.02;;
323;SDS011;149;51.094;17.002;2023-05-01T06:37:46;16.30;;;8.80;;
323;SDS011;149;51.094;17.002;2023-05-01T06:40:13;13.38;;;7.43;;
323;SDS011;149;51.094;17.002;2023-05-01T06:42:42;9.98;;;7.20;;
323;SDS011;149;51.094;17.002;2023-05-01T06:45:09;13.23;;;6.65;;
323;SDS011;149;51.094;17.002;2023-05-01T06:47:36;9.40;;;6.70;;
323;SDS011;149;51.094;17.002;2023-05-01T06:50:03;12.23;;;6.43;;
323;SDS011;149;51.094;17.002;2023-05-01T06:52:31;10.50;;;6.27;;
323;SDS011;149;51.094;17.002;2023-05-01T06:54:58;8.63;;;6.80;;
323;SDS011;149;51.094;17.002;2023-05-01T06:57:25;14.67;;;7.27;;
323;SDS011;149;51.094;17.002;2023-05-01T06:59:52;11.40;;;7.73;;
323;SDS011;149;51.094;17.002;2023-05-01T07:02:19;8.60;;;6.53;;
323;SDS011;149;51.094;17.002;2023-05-01T07:04:46;8.17;;;5.83;;
323;SDS011;149;51.094;17.002;2023-05-01T07:07:13;9.40;;;5.83;;
323;SDS011;149;51.094;17.002;2023-05-01T07:09:40;8.40;;;7.60;;
323;SDS011;149;51.094;17.002;2023-05-01T07:12:07;6.83;;;6.03;;
323;SDS011;149;51.094;17.002;2023-05-01T07:14:35;14.57;;;7.40;;
323;SDS011;149;51.094;17.002;2023-05-01T07:17:02;10.10;;;6.27;;
323;SDS011;149;51.094;17.002;2023-05-01T07:19:29;8.07;;;6.10;;
323;SDS011;149;51.094;17.002;2023-05-01T07:21:56;8.23;;;6.57;;
323;SDS011;149;51.094;17.002;2023-05-01T07:24:23;8.83;;;7.07;;
323;SDS011;149;51.094;17.002;2023-05-01T07:26:50;7.07;;;5.50;;
323;SDS011;149;51.094;17.002;2023-05-01T07:29:17;9.03;;;6.73;;
323;SDS011;149;51.094;17.002;2023-05-01T07:31:44;7.63;;;5.47;;
323;SDS011;149;51.094;17.002;2023-05-01T07:34:11;10.20;;;6.50;;
323;SDS011;149;51.094;17.002;2023-05-01T07:36:40;8.00;;;7.20;;
323;SDS011;149;51.094;17.002;2023-05-01T07:39:07;7.13;;;6.53;;
323;SDS011;149;51.094;17.002;2023-05-01T07:41:34;8.40;;;7.33;;
323;SDS011;149;51.094;17.002;2023-05-01T07:44:02;8.77;;;6.70;;
323;SDS011;149;51.094;17.002;2023-05-01T07:46:29;13.70;;;7.43;;
323;SDS011;149;51.094;17.002;2023-05-01T07:48:57;11.37;;;7.23;;
323;SDS011;149;51.094;17.002;2023-05-01T07:51:24;12.97;;;8.13;;
323;SDS011;149;51.094;17.002;2023-05-01T07:53:51;8.47;;;7.47;;
323;SDS011;149;51.094;17.002;2023-05-01T07:56:18;16.40;;;6.60;;
323;SDS011;149;51.094;17.002;2023-05-01T07:58:44;13.90;;;7.43;;
323;SDS011;149;51.094;17.002;2023-05-01T08:01:11;8.17;;;7.23;;
323;SDS011;149;51.094;17.002;2023-05-01T08:03:38;7.50;;;6.20;;
323;SDS011;149;51.094;17.002;2023-05-01T08:06:05;7.00;;;6.30;;
323;SDS011;149;51.094;17.002;2023-05-01T08:08:32;6.80;;;5.07;;
323;SDS011;149;51.094;17.002;2023-05-01T08:11:00;17.80;;;7.00;;
323;SDS011;149;51.094;17.002;2023-05-01T08:13:29;7.17;;;5.50;;
323;SDS011;149;51.094;17.002;2023-05-01T08:16:00;11.83;;;5.90;;
323;SDS011;149;51.094;17.002;2023-05-01T08:18:28;12.00;;;5.90;;
323;SDS011;149;51.094;17.002;2023-05-01T08:20:55;4.80;;;3.70;;
323;SDS011;149;51.094;17.002;2023-05-01T08:23:25;7.27;;;4.37;;
323;SDS011;149;51.094;17.002;2023-05-01T08:25:51;7.87;;;5.70;;
323;SDS011;149;51.094;17.002;2023-05-01T08:28:18;7.20;;;6.07;;
323;SDS011;149;51.094;17.002;2023-05-01T08:30:48;5.40;;;4.90;;
323;SDS011;149;51.094;17.002;2023-05-01T08:33:16;7.30;;;4.90;;
323;SDS011;149;51.094;17.002;2023-05-01T08:35:43;6.43;;;5.80;;
323;SDS011;149;51.094;17.002;2023-05-01T08:38:10;8.27;;;4.60;;
323;SDS011;149;51.094;17.002;2023-05-01T08:40:37;5.10;;;4.40;;
323;SDS011;149;51.094;17.002;2023-05-01T08:43:06;4.90;;;4.43;;
323;SDS011;149;51.094;17.002;2023-05-01T08:45:34;5.00;;;3.90;;
323;SDS011;149;51.094;17.002;2023-05-01T08:48:06;6.03;;;4.90;;
323;SDS011;149;51.094;17.002;2023-05-01T08:50:37;5.00;;;4.50;;
323;SDS011;149;51.094;17.002;2023-05-01T08:53:05;6.00;;;4.67;;
323;SDS011;149;51.094;17.002;2023-05-01T08:55:33;6.10;;;4.80;;
323;SDS011;149;51.094;17.002;2023-05-01T08:58:01;6.20;;;4.57;;
323;SDS011;149;51.094;17.002;2023-05-01T09:00:31;9.07;;;6.03;;
323;SDS011;149;51.094;17.002;2023-05-01T09:03:00;10.20;;;4.83;;
323;SDS011;149;51.094;17.002;2023-05-01T09:05:31;5.63;;;5.10;;
323;SDS011;149;51.094;17.002;2023-05-01T09:07:59;6.43;;;4.43;;
323;SDS011;149;51.094;17.002;2023-05-01T09:10:26;9.20;;;6.23;;
323;SDS011;149;51.094;17.002;2023-05-01T09:12:56;7.00;;;4.53;;
323;SDS011;149;51.094;17.002;2023-05-01T09:15:26;7.13;;;5.80;;
323;SDS011;149;51.094;17.002;2023-05-01T09:17:53;5.50;;;5.00;;
323;SDS011;149;51.094;17.002;2023-05-01T09:20:21;5.83;;;4.43;;
323;SDS011;149;51.094;17.002;2023-05-01T09:22:49;5.40;;;4.77;;
323;SDS011;149;51.094;17.002;2023-05-01T09:25:16;6.73;;;4.30;;
323;SDS011;149;51.094;17.002;2023-05-01T09:27:44;5.70;;;4.37;;
323;SDS011;149;51.094;17.002;2023-05-01T09:30:31;5.40;;;4.30;;
323;SDS011;149;51.094;17.002;2023-05-01T09:33:18;7.07;;;4.20;;
323;SDS011;149;51.094;17.002;2023-05-01T09:35:49;7.40;;;4.87;;
323;SDS011;149;51.094;17.002;2023-05-01T09:38:20;9.50;;;5.30;;
323;SDS011;149;51.094;17.002;2023-05-01T09:40:49;5.93;;;4.33;;
323;SDS011;149;51.094;17.002;2023-05-01T09:43:22;9.73;;;5.30;;
323;SDS011;149;51.094;17.002;2023-05-01T09:46:09;8.40;;;4.20;;
323;SDS011;149;51.094;17.002;2023-05-01T09:48:37;7.63;;;4.80;;
323;SDS011;149;51.094;17.002;2023-05-01T09:51:24;5.00;;;4.50;;
323;SDS011;149;51.094;17.002;2023-05-01T09:54:01;6.17;;;4.30;;
323;SDS011;149;51.094;17.002;2023-05-01T09:56:30;5.27;;;4.77;;
323;SDS011;149;51.094;17.002;2023-05-01T09:59:13;13.60;;;5.17;;
323;SDS011;149;51.094;17.002;2023-05-01T10:01:42;5.83;;;4.17;;
323;SDS011;149;51.094;17.002;2023-05-01T10:04:11;11.60;;;5.80;;
323;SDS011;149;51.094;17.002;2023-05-01T10:06:38;6.37;;;4.53;;
323;SDS011;149;51.094;17.002;2023-05-01T10:09:06;5.60;;;5.07;;
323;SDS011;149;51.094;17.002;2023-05-01T10:11:49;7.17;;;5.07;;
323;SDS011;149;51.094;17.002;2023-05-01T10:14:21;7.27;;;5.00;;
323;SDS011;149;51.094;17.002;2023-05-01T10:16:50;7.10;;;6.00;;
323;SDS011;149;51.094;17.002;2023-05-01T10:19:18;12.27;;;5.80;;
323;SDS011;149;51.094;17.002;2023-05-01T10:21:46;6.77;;;5.27;;
323;SDS011;149;51.094;17.002;2023-05-01T10:24:15;9.50;;;4.80;;
323;SDS011;149;51.094;17.002;2023-05-01T10:26:42;7.60;;;5.00;;
323;SDS011;149;51.094;17.002;2023-05-01T10:29:10;8.10;;;5.27;;
323;SDS011;149;51.094;17.002;2023-05-01T10:31:40;8.50;;;5.13;;
323;SDS011;149;51.094;17.002;2023-05-01T10:34:08;6.83;;;4.80;;
323;SDS011;149;51.094;17.002;2023-05-01T10:36:43;4.87;;;4.47;;
323;SDS011;149;51.094;17.002;2023-05-01T10:39:49;6.53;;;4.77;;
323;SDS011;149;51.094;17.002;2023-05-01T10:42:11;10.03;;;5.10;;
323;SDS011;149;51.094;17.002;2023-05-01T10:44:43;11.27;;;5.93;;
323;SDS011;149;51.094;17.002;2023-05-01T10:50:03;6.50;;;4.63;;
323;SDS011;149;51.094;17.002;2023-05-01T10:55:37;6.50;;;4.30;;
323;SDS011;149;51.094;17.002;2023-05-01T10:58:05;6.20;;;4.00;;
323;SDS011;149;51.094;17.002;2023-05-01T11:00:33;5.97;;;4.20;;
323;SDS011;149;51.094;17.002;2023-05-01T11:03:32;6.60;;;4.20;;
323;SDS011;149;51.094;17.002;2023-05-01T11:08:30;5.70;;;4.20;;
323;SDS011;149;51.094;17.002;2023-05-01T11:13:54;6.33;;;4.50;;
323;SDS011;149;51.094;17.002;2023-05-01T11:21:47;11.93;;;4.10;;
323;SDS011;149;51.094;17.002;2023-05-01T11:24:15;8.30;;;4.00;;
323;SDS011;149;51.094;17.002;2023-05-01T11:26:45;6.00;;;4.17;;
323;SDS011;149;51.094;17.002;2023-05-01T11:32:01;8.27;;;4.53;;
323;SDS011;149;51.094;17.002;2023-05-01T11:34:34;5.87;;;4.10;;
323;SDS011;149;51.094;17.002;2023-05-01T11:37:04;8.43;;;5.27;;
323;SDS011;149;51.094;17.002;2023-05-01T11:39:31;6.23;;;3.80;;
323;SDS011;149;51.094;17.002;2023-05-01T11:42:07;4.70;;;3.77;;
323;SDS011;149;51.094;17.002;2023-05-01T11:44:35;6.27;;;4.10;;
323;SDS011;149;51.094;17.002;2023-05-01T11:47:02;5.70;;;5.10;;
323;SDS011;149;51.094;17.002;2023-05-01T11:49:32;10.80;;;5.77;;
323;SDS011;149;51.094;17.002;2023-05-01T11:51:59;5.87;;;4.90;;
323;SDS011;149;51.094;17.002;2023-05-01T11:54:26;6.07;;;4.20;;
323;SDS011;149;51.094;17.002;2023-05-01T11:56:56;4.50;;;3.80;;
323;SDS011;149;51.094;17.002;2023-05-01T11:59:27;4.20;;;3.80;;
323;SDS011;149;51.094;17.002;2023-05-01T12:01:55;7.00;;;3.70;;
323;SDS011;149;51.094;17.002;2023-05-01T12:04:26;5.60;;;3.90;;
323;SDS011;149;51.094;17.002;2023-05-01T12:06:57;9.90;;;5.27;;
323;SDS011;149;51.094;17.002;2023-05-01T12:09:24;7.33;;;4.60;;
323;SDS011;149;51.094;17.002;2023-05-01T12:11:54;5.33;;;4.13;;
323;SDS011;149;51.094;17.002;2023-05-01T12:14:24;5.03;;;3.70;;
323;SDS011;149;51.094;17.002;2023-05-01T12:16:51;11.70;;;5.10;;
323;SDS011;149;51.094;17.002;2023-05-01T12:19:19;5.07;;;4.20;;
323;SDS011;149;51.094;17.002;2023-05-01T12:22:03;4.60;;;3.57;;
323;SDS011;149;51.094;17.002;2023-05-01T12:24:31;4.63;;;4.17;;
323;SDS011;149;51.094;17.002;2023-05-01T12:26:59;6.73;;;4.23;;
323;SDS011;149;51.094;17.002;2023-05-01T12:29:37;8.47;;;4.63;;
323;SDS011;149;51.094;17.002;2023-05-01T12:32:05;6.97;;;4.80;;
323;SDS011;149;51.094;17.002;2023-05-01T12:34:33;7.07;;;4.20;;
323;SDS011;149;51.094;17.002;2023-05-01T12:36:59;7.43;;;3.63;;
323;SDS011;149;51.094;17.002;2023-05-01T12:39:35;5.70;;;4.20;;
323;SDS011;149;51.094;17.002;2023-05-01T12:42:10;5.17;;;3.87;;
323;SDS011;149;51.094;17.002;2023-05-01T12:44:39;6.70;;;4.00;;
323;SDS011;149;51.094;17.002;2023-05-01T12:47:07;4.30;;;3.30;;
323;SDS011;149;51.094;17.002;2023-05-01T12:49:35;4.23;;;3.83;;
323;SDS011;149;51.094;17.002;2023-05-01T12:52:03;4.40;;;3.63;;
323;SDS011;149;51.094;17.002;2023-05-01T12:54:33;5.03;;;3.90;;
323;SDS011;149;51.094;17.002;2023-05-01T12:57:04;9.23;;;4.53;;
323;SDS011;149;51.094;17.002;2023-05-01T12:59:40;4.97;;;4.23;;
323;SDS011;149;51.094;17.002;2023-05-01T13:02:14;4.93;;;4.37;;
323;SDS011;149;51.094;17.002;2023-05-01T13:04:44;6.50;;;5.23;;
323;SDS011;149;51.094;17.002;2023-05-01T13:07:16;6.20;;;4.60;;
323;SDS011;149;51.094;17.002;2023-05-01T13:12:21;6.57;;;4.57;;
323;SDS011;149;51.094;17.002;2023-05-01T13:14:57;4.33;;;3.70;;
323;SDS011;149;51.094;17.002;2023-05-01T13:19:53;7.50;;;4.33;;
323;SDS011;149;51.094;17.002;2023-05-01T13:22:29;6.10;;;4.87;;
323;SDS011;149;51.094;17.002;2023-05-01T13:24:56;12.63;;;4.60;;
323;SDS011;149;51.094;17.002;2023-05-01T13:27:23;6.47;;;4.30;;
323;SDS011;149;51.094;17.002;2023-05-01T13:29:53;6.23;;;4.63;;
323;SDS011;149;51.094;17.002;2023-05-01T13:32:24;7.07;;;5.27;;
323;SDS011;149;51.094;17.002;2023-05-01T13:34:52;8.63;;;4.43;;
323;SDS011;149;51.094;17.002;2023-05-01T13:37:23;8.40;;;4.00;;
323;SDS011;149;51.094;17.002;2023-05-01T13:39:52;6.63;;;4.87;;
323;SDS011;149;51.094;17.002;2023-05-01T13:42:26;6.83;;;4.87;;
323;SDS011;149;51.094;17.002;2023-05-01T13:44:54;5.70;;;4.90;;
323;SDS011;149;51.094;17.002;2023-05-01T13:47:23;5.60;;;4.50;;
323;SDS011;149;51.094;17.002;2023-05-01T13:49:54;10.73;;;4.73;;
323;SDS011;149;51.094;17.002;2023-05-01T13:52:23;7.13;;;4.50;;
323;SDS011;149;51.094;17.002;2023-05-01T13:54:50;5.50;;;3.90;;
323;SDS011;149;51.094;17.002;2023-05-01T13:57:21;10.63;;;5.00;;
323;SDS011;149;51.094;17.002;2023-05-01T13:59:48;6.63;;;5.00;;
323;SDS011;149;51.094;17.002;2023-05-01T14:02:18;5.20;;;4.27;;
323;SDS011;149;51.094;17.002;2023-05-01T14:04:47;4.80;;;4.10;;
323;SDS011;149;51.094;17.002;2023-05-01T14:07:22;5.60;;;5.00;;
323;SDS011;149;51.094;17.002;2023-05-01T14:09:53;5.03;;;4.50;;
323;SDS011;149;51.094;17.002;2023-05-01T14:12:25;7.30;;;4.80;;
323;SDS011;149;51.094;17.002;2023-05-01T14:14:54;4.77;;;3.83;;
323;SDS011;149;51.094;17.002;2023-05-01T14:17:31;4.57;;;4.13;;
323;SDS011;149;51.094;17.002;2023-05-01T14:20:01;4.57;;;3.67;;
323;SDS011;149;51.094;17.002;2023-05-01T14:22:33;8.43;;;2.53;;
323;SDS011;149;51.094;17.002;2023-05-01T14:25:30;8.20;;;3.77;;
323;SDS011;149;51.094;17.002;2023-05-01T14:28:00;6.57;;;4.57;;
323;SDS011;149;51.094;17.002;2023-05-01T14:30:31;4.73;;;4.23;;
323;SDS011;149;51.094;17.002;2023-05-01T14:33:02;9.10;;;7.27;;
323;SDS011;149;51.094;17.002;2023-05-01T14:35:48;4.67;;;3.67;;
323;SDS011;149;51.094;17.002;2023-05-01T14:38:16;4.63;;;3.37;;
323;SDS011;149;51.094;17.002;2023-05-01T14:40:44;8.23;;;3.77;;
323;SDS011;149;51.094;17.002;2023-05-01T14:43:13;6.00;;;4.00;;
323;SDS011;149;51.094;17.002;2023-05-01T14:45:43;7.70;;;3.67;;
323;SDS011;149;51.094;17.002;2023-05-01T14:48:21;4.57;;;3.37;;
323;SDS011;149;51.094;17.002;2023-05-01T14:50:52;4.70;;;2.63;;
323;SDS011;149;51.094;17.002;2023-05-01T14:53:24;3.37;;;2.60;;
323;SDS011;149;51.094;17.002;2023-05-01T14:55:52;4.03;;;3.67;;
323;SDS011;149;51.094;17.002;2023-05-01T14:58:20;4.03;;;2.77;;
323;SDS011;149;51.094;17.002;2023-05-01T15:03:16;4.23;;;3.17;;
323;SDS011;149;51.094;17.002;2023-05-01T15:05:43;3.20;;;2.90;;
323;SDS011;149;51.094;17.002;2023-05-01T15:08:11;3.07;;;2.50;;
323;SDS011;149;51.094;17.002;2023-05-01T15:10:38;3.67;;;2.97;;
323;SDS011;149;51.094;17.002;2023-05-01T15:15:47;3.87;;;2.97;;
323;SDS011;149;51.094;17.002;2023-05-01T15:18:14;3.83;;;3.30;;
323;SDS011;149;51.094;17.002;2023-05-01T15:20:42;5.40;;;2.87;;
323;SDS011;149;51.094;17.002;2023-05-01T15:23:09;4.13;;;2.87;;
323;SDS011;149;51.094;17.002;2023-05-01T15:25:36;6.47;;;2.70;;
323;SDS011;149;51.094;17.002;2023-05-01T15:28:03;4.03;;;2.10;;
323;SDS011;149;51.094;17.002;2023-05-01T15:30:32;2.83;;;2.50;;
323;SDS011;149;51.094;17.002;2023-05-01T15:32:59;2.17;;;2.07;;
323;SDS011;149;51.094;17.002;2023-05-01T15:35:26;3.20;;;2.90;;
323;SDS011;149;51.094;17.002;2023-05-01T15:37:53;3.80;;;2.67;;
323;SDS011;149;51.094;17.002;2023-05-01T15:40:21;5.53;;;3.07;;
323;SDS011;149;51.094;17.002;2023-05-01T15:42:48;3.47;;;2.53;;
323;SDS011;149;51.094;17.002;2023-05-01T15:45:15;3.77;;;2.47;;
323;SDS011;149;51.094;17.002;2023-05-01T15:47:44;3.93;;;2.20;;
323;SDS011;149;51.094;17.002;2023-05-01T15:50:12;2.47;;;2.27;;
323;SDS011;149;51.094;17.002;2023-05-01T15:52:39;4.93;;;2.27;;
323;SDS011;149;51.094;17.002;2023-05-01T15:55:08;2.83;;;2.13;;
323;SDS011;149;51.094;17.002;2023-05-01T15:57:34;3.07;;;2.40;;
323;SDS011;149;51.094;17.002;2023-05-01T16:02:36;2.60;;;2.40;;
323;SDS011;149;51.094;17.002;2023-05-01T16:05:03;3.87;;;2.70;;
323;SDS011;149;51.094;17.002;2023-05-01T16:07:30;3.70;;;2.57;;
323;SDS011;149;51.094;17.002;2023-05-01T16:09:59;5.80;;;3.30;;
323;SDS011;149;51.094;17.002;2023-05-01T16:12:28;3.17;;;2.70;;
323;SDS011;149;51.094;17.002;2023-05-01T16:14:55;2.93;;;2.27;;
323;SDS011;149;51.094;17.002;2023-05-01T16:17:22;3.90;;;3.00;;
323;SDS011;149;51.094;17.002;2023-05-01T16:19:49;2.40;;;2.20;;
323;SDS011;149;51.094;17.002;2023-05-01T16:22:17;4.47;;;2.80;;